Latest Weather Observations for Coonamble

IDN60801

Issued at 5:05 pm EDT Thursday 29 January 2015 (issued every 30 minutes, with the page automatically refreshed every 10 minutes)

About weather observations | Map of weather stations | Latest weather observations for NSW | Other Formats
Station Details ID: 051161 Name: COONAMBLE AIRPORT AWS Lat: -30.98 Lon: 148.38 Height: 181.3 m
Data from the previous 72 hours. | See also: Recent months at Coonamble
Date/Time
EDT
Temp
°C
App
Temp
°C
Dew
Point
Rel
Hum
%
Delta-T
°C
Wind Press
QNH
hPa
Press
MSL
hPa
Rain
since 9 am
mm
Dir
 
Spd
km/h
Gust
km/h
Spd
kts
Gust
kts
29/05:00pm 28.4 23.4 8.1 28 11.1 SSE 24 33 13 18 1008.9 1007.8 0.0
29/04:30pm 27.9 22.4 7.7 28 11.0 S 26 39 14 21 1009.3 1008.2 0.0
29/04:00pm 27.1 21.6 7.5 29 10.6 S 26 35 14 19 1009.6 1008.5 0.0
29/03:30pm 27.1 22.7 7.5 29 10.6 S 20 32 11 17 1009.7 1008.6 0.0
29/03:00pm 28.5 24.4 8.7 29 11.0 SSW 20 28 11 15 1009.9 1008.8 0.0
29/02:30pm 26.8 22.6 8.3 31 10.1 SSW 20 32 11 17 1010.3 1009.2 0.0
29/02:00pm 27.7 23.9 9.0 31 10.4 SW 19 33 10 18 1010.6 1009.5 0.0
29/01:30pm 27.0 23.7 9.4 33 9.8 SSW 17 28 9 15 1011.0 1009.9 0.0
29/01:00pm 26.0 23.9 11.0 39 8.5 WSW 13 20 7 11 1011.3 1010.2 0.0
29/12:30pm 25.7 24.2 11.8 42 8.0 SW 11 19 6 10 1012.0 1010.8 0.0
29/12:00pm 25.0 23.8 11.6 43 7.7 WSW 9 13 5 7 1012.2 1011.0 0.0
29/11:30am 23.7 22.0 9.7 41 7.7 SW 9 13 5 7 1012.6 1011.4 0.0
29/11:00am 23.1 22.0 11.8 49 6.4 WSW 9 15 5 8 1012.7 1011.5 0.0
29/10:30am 22.2 20.5 11.3 50 6.1 ENE 11 17 6 9 1012.9 1011.7 0.0
29/10:00am 22.1 20.4 11.2 50 6.1 E 11 17 6 9 1012.8 1011.6 0.0
29/09:30am 21.1 20.8 12.8 59 4.8 ENE 6 11 3 6 1012.9 1011.7 0.0
29/09:00am 19.4 19.1 12.7 65 3.8 NNW 6 9 3 5 1012.8 1011.6 0.0
29/08:30am 18.9 19.1 14.2 74 2.7 SE 6 7 3 4 1012.8 1011.6 0.0
29/08:00am 17.1 17.0 14.0 82 1.8 SSE 7 9 4 5 1012.4 1011.2 0.0
29/07:30am 15.8 15.5 14.5 92 0.7 SSE 9 11 5 6 1012.4 1011.2 0.0
29/07:00am 14.4 13.9 13.9 97 0.3 S 9 9 5 5 1011.9 1010.7 0.0
29/06:30am 13.8 13.1 13.3 97 0.3 SSE 9 11 5 6 1011.4 1010.3 0.0
29/06:00am 13.9 12.9 13.4 97 0.3 SSE 11 13 6 7 1011.2 1010.1 0.0
29/05:30am 14.4 13.2 13.9 97 0.3 SE 13 15 7 8 1011.0 1009.9 0.0
29/05:00am 14.5 13.7 14.0 97 0.3 SSE 11 15 6 8 1010.9 1009.8 0.0
29/04:30am 14.5 14.1 14.0 97 0.3 SSE 9 11 5 6 1010.7 1009.6 0.0
29/04:00am 14.7 14.0 14.2 97 0.3 S 11 13 6 7 1010.5 1009.4 0.0
29/03:30am 15.0 14.7 14.5 97 0.3 SSE 9 11 5 6 1010.8 1009.7 0.0
29/03:00am 15.0 14.7 14.5 97 0.3 SSE 9 9 5 5 1010.9 1009.8 0.0
29/02:30am 15.6 15.9 15.0 96 0.3 SE 7 9 4 5 1010.9 1009.8 0.0
29/02:00am 15.8 15.8 15.2 96 0.4 SSE 9 9 5 5 1011.2 1010.1 0.0
29/01:30am 16.0 16.3 14.9 93 0.6 SE 7 9 4 5 1011.3 1010.2 0.0
29/01:00am 16.5 17.0 14.9 90 0.9 SE 6 11 3 6 1011.5 1010.4 0.0
29/12:30am 16.2 16.7 14.9 92 0.8 SE 6 9 3 5 1011.7 1010.5 0.0
29/12:00am 17.1 17.2 14.4 84 1.6 SSE 7 9 4 5 1011.7 1010.5 0.0
 
Date/Time
EDT
Temp
°C
App
Temp
°C
Dew
Point
Rel
Hum
%
Delta-T
°C
Wind Press
QNH
hPa
Press
MSL
hPa
Rain
since 9 am
mm
Dir
 
Spd
km/h
Gust
km/h
Spd
kts
Gust
kts
28/11:30pm 17.3 16.8 13.8 80 2.0 SE 9 11 5 6 1011.7 1010.5 0.0
28/11:00pm 17.7 17.3 14.0 79 2.1 SSE 9 11 5 6 1011.8 1010.6 0.0
28/10:30pm 18.5 17.2 13.8 74 2.7 SE 13 17 7 9 1011.5 1010.4 0.0
28/10:00pm 18.8 18.5 14.3 75 2.6 SSE 9 15 5 8 1011.2 1010.1 0.0
28/09:30pm 19.6 18.6 13.5 68 3.5 SE 11 15 6 8 1010.6 1009.5 0.0
28/09:00pm 20.4 18.0 12.6 61 4.4 ESE 17 24 9 13 1010.2 1009.1 0.0
28/08:30pm 20.9 18.3 13.1 61 4.5 SE 19 26 10 14 1010.2 1009.1 0.0
28/08:00pm 21.4 18.3 13.3 60 4.7 SE 22 30 12 16 1010.2 1009.1 0.0
28/07:30pm 22.2 17.4 13.0 56 5.3 SE 30 39 16 21 1009.9 1008.8 0.0
28/07:00pm 22.6 17.5 13.1 55 5.5 SE 32 44 17 24 1009.6 1008.5 0.0
28/06:30pm 21.6 16.5 13.2 59 4.9 SE 32 43 17 23 1009.2 1008.1 0.0
28/06:00pm 22.1 16.6 13.5 58 5.0 SE 35 46 19 25 1008.7 1007.6 0.0
28/05:30pm 23.8 18.8 15.0 57 5.3 SE 35 50 19 27 1008.2 1007.0 0.0
28/05:00pm 25.3 21.1 14.7 51 6.4 ESE 30 44 16 24 1007.8 1006.6 0.0
28/04:30pm 25.2 21.5 14.9 52 6.2 ESE 28 39 15 21 1007.9 1006.7 0.0
28/04:00pm 28.3 25.7 13.8 41 8.7 ESE 20 32 11 17 1007.6 1006.4 0.0
28/03:30pm 27.3 24.3 14.7 46 7.6 SSE 24 32 13 17 1007.8 1006.6 0.0
28/03:00pm 26.2 23.6 13.7 46 7.4 SE 20 32 11 17 1008.1 1006.9 0.0
28/02:30pm 27.7 25.5 14.3 43 8.1 SE 19 30 10 16 1008.1 1006.9 0.0
28/02:00pm 27.6 25.4 14.3 44 8.0 ESE 19 30 10 16 1008.3 1007.2 0.0
28/01:30pm 26.6 23.9 13.0 43 8.0 E 19 24 10 13 1008.7 1007.6 0.0
28/01:00pm 26.1 24.7 14.6 49 6.9 E 15 28 8 15 1008.8 1007.7 0.0
28/12:30pm 26.0 24.3 14.8 50 6.8 E 17 22 9 12 1009.0 1007.9 0.0
28/12:00pm 25.2 23.3 13.1 47 7.1 E 15 22 8 12 1009.3 1008.2 0.0
28/11:30am 25.9 24.2 14.7 50 6.8 ENE 17 24 9 13 1009.6 1008.5 0.0
28/11:00am 24.5 22.6 15.1 55 5.7 ENE 19 26 10 14 1009.7 1008.6 0.0
28/10:30am 24.2 22.4 15.4 58 5.3 E 19 30 10 16 1009.6 1008.5 0.0
28/10:00am 23.6 21.9 14.6 57 5.4 ESE 17 28 9 15 1009.7 1008.6 0.0
28/09:30am 22.3 21.2 15.4 65 4.2 ESE 15 24 8 13 1009.7 1008.6 0.0
28/09:00am 21.8 21.3 15.9 69 3.6 ESE 13 19 7 10 1009.5 1008.4 43.0
28/08:30am 20.6 20.7 16.4 77 2.6 SSE 11 13 6 7 1009.4 1008.3 43.0
28/08:00am 18.9 19.2 16.9 88 1.2 S 11 13 6 7 1009.2 1008.1 43.0
28/07:30am 18.0 18.4 17.2 95 0.5 SSE 11 13 6 7 1008.8 1007.7 43.0
28/07:00am 17.1 17.2 16.6 97 0.3 SSE 11 15 6 8 1008.4 1007.3 43.0
28/06:30am 16.3 16.2 16.0 98 0.2 S 11 13 6 7 1008.2 1007.0 43.0
28/06:00am 16.4 16.3 16.1 98 0.2 S 11 13 6 7 1007.8 1006.6 43.0
28/05:30am 16.6 17.0 16.3 98 0.2 SSE 9 13 5 7 1007.4 1006.2 43.0
28/05:00am 16.6 16.6 16.3 98 0.2 SSE 11 15 6 8 1007.2 1006.0 43.0
28/04:30am 16.7 16.8 16.4 98 0.2 S 11 13 6 7 1007.0 1005.8 43.0
28/04:00am 16.9 16.7 16.6 98 0.2 S 13 15 7 8 1007.0 1005.8 43.0
28/03:30am 17.1 17.3 16.8 98 0.2 SSE 11 13 6 7 1007.0 1005.8 43.0
28/03:00am 17.1 17.3 16.8 98 0.2 SSE 11 13 6 7 1007.1 1005.9 43.0
28/02:30am 17.5 17.8 17.0 97 0.3 SSE 11 17 6 9 1007.4 1006.2 43.0
28/02:00am 17.6 17.6 17.1 97 0.3 SSE 13 17 7 9 1007.6 1006.4 43.0
28/01:30am 17.9 18.4 17.4 97 0.3 S 11 17 6 9 1007.7 1006.5 43.0
28/01:00am 17.8 18.7 16.5 92 0.8 SE 7 9 4 5 1007.7 1006.5 43.0
28/12:30am 18.5 19.2 16.1 86 1.4 ESE 7 11 4 6 1007.6 1006.4 43.0
28/12:00am 18.2 19.3 16.7 91 0.9 ENE 6 7 3 4 1007.8 1006.6 43.0
 
Date/Time
EDT
Temp
°C
App
Temp
°C
Dew
Point
Rel
Hum
%
Delta-T
°C
Wind Press
QNH
hPa
Press
MSL
hPa
Rain
since 9 am
mm
Dir
 
Spd
km/h
Gust
km/h
Spd
kts
Gust
kts
27/11:30pm 18.3 19.3 17.7 96 0.4 ENE 9 11 5 6 1007.9 1006.7 43.0
27/11:00pm 18.1 19.4 17.6 97 0.3 ENE 7 9 4 5 1008.4 1007.3 43.0
27/10:30pm 18.1 19.6 17.6 97 0.3 E 6 11 3 6 1008.2 1007.0 43.0
27/10:00pm 19.0 20.4 17.3 90 1.0 E 6 7 3 4 1008.1 1006.9 42.6
27/09:30pm 19.1 20.2 18.1 94 0.6 NE 9 11 5 6 1007.7 1006.5 39.6
27/09:00pm 19.1 20.8 18.1 94 0.6 SSE 6 11 3 6 1007.2 1006.0 36.0
27/08:30pm 20.0 20.6 16.8 82 2.0 E 9 11 5 6 1007.0 1005.8 32.6
27/08:00pm 21.1 20.4 16.5 75 2.8 ESE 15 20 8 11 1006.1 1004.9 29.4
27/07:30pm 21.3 20.5 17.1 77 2.6 ESE 17 24 9 13 1005.5 1004.4 25.8
27/07:00pm 21.5 19.5 17.3 77 2.6 E 24 33 13 18 1005.0 1003.9 22.4
27/06:30pm 21.5 19.2 18.5 83 1.9 E 28 43 15 23 1004.9 1003.8 19.4
27/06:00pm 21.2 19.4 20.4 95 0.5 E 30 43 16 23 1004.9 1003.8 16.6
27/05:30pm 20.2 18.5 19.9 98 0.2 E 28 43 15 23 1005.0 1003.9 13.8
27/05:00pm 19.3 16.5 19.1 99 0.1 SE 32 41 17 22 1005.4 1004.3 11.2
27/04:33pm 19.0 14.8 18.8 99 0.1 SE 39 57 21 31 1005.1 1004.0 8.8
27/04:30pm 19.0 14.4 18.8 99 0.1 SE 41 57 22 31 1004.7 1003.6 8.6
27/04:22pm 19.2 17.2 19.2 100 0.0 SSE 28 50 15 27 1006.2 1005.0 7.8
27/04:00pm 18.9 17.5 18.7 99 0.1 SE 24 35 13 19 1006.8 1005.6 6.0
27/03:30pm 19.3 19.4 19.1 99 0.1 SSW 17 26 9 14 1006.7 1005.5 4.2
27/03:00pm 19.0 20.5 18.8 99 0.1 SE 9 13 5 7 1006.7 1005.5 2.2
27/02:30pm 19.1 20.2 18.9 99 0.1 NE 11 22 6 12 1007.0 1005.8 1.2
27/02:00pm 19.6 19.4 19.4 99 0.1 SW 19 30 10 16 1008.4 1007.3 0.8
27/01:54pm 20.0 19.1 19.8 99 0.1 S 24 41 13 22 1007.5 1006.3 0.8
27/01:30pm 20.5 18.3 20.3 99 0.1 SE 32 44 17 24 1005.4 1004.3 0.4
27/01:00pm 22.8 20.4 20.0 84 1.8 SE 32 44 17 24 1006.0 1004.8 0.0
27/12:30pm 24.5 22.2 17.5 65 4.4 SSE 26 43 14 23 1006.6 1005.4 0.0
27/12:27pm 25.1 23.6 16.8 60 5.2 S 20 39 11 21 1006.7 1005.5 0.0
27/12:00pm 30.3 29.6 16.3 42 8.8 N 15 20 8 11 1007.1 1005.9 0.0
27/11:30am 28.4 26.7 16.3 47 7.6 NNE 20 28 11 15 1007.3 1006.1 0.0
27/11:00am 28.2 27.2 16.5 49 7.3 NNE 17 24 9 13 1007.7 1006.5 0.0
27/10:30am 27.5 26.8 16.5 51 6.9 NE 15 20 8 11 1008.2 1007.0 0.0
27/10:00am 26.7 26.1 16.6 54 6.3 NE 15 20 8 11 1008.3 1007.2 0.0
27/09:30am 26.4 24.9 16.3 53 6.3 NE 19 24 10 13 1008.3 1007.2 0.0
27/09:00am 25.6 24.1 16.7 58 5.5 ENE 20 26 11 14 1008.5 1007.4 0.0
27/08:30am 24.8 22.8 16.5 60 5.1 ENE 22 28 12 15 1008.4 1007.3 0.0
27/08:00am 24.5 23.2 16.7 61 4.8 ENE 19 22 10 12 1008.2 1007.0 0.0
27/07:30am 23.5 23.3 16.8 66 4.1 E 13 20 7 11 1008.0 1006.8 0.0
27/07:00am 22.8 23.4 16.8 69 3.7 ESE 9 13 5 7 1007.8 1006.6 0.0
27/06:30am 22.5 22.7 16.8 70 3.5 E 11 15 6 8 1007.5 1006.3 0.0
27/06:00am 22.4 22.7 17.1 72 3.3 E 11 17 6 9 1007.4 1006.2 0.0
27/05:30am 22.2 22.9 17.1 73 3.2 ESE 9 13 5 7 1007.3 1006.1 0.0
27/05:00am 22.4 22.4 17.3 73 3.2 ESE 13 17 7 9 1007.2 1006.0 0.0
27/04:30am 22.3 23.1 17.4 74 3.0 ESE 9 13 5 7 1007.2 1006.0 0.0
27/04:00am 22.4 22.4 17.3 73 3.2 ENE 13 19 7 10 1007.2 1006.0 0.0
27/03:30am 22.8 22.2 17.5 72 3.3 ENE 17 20 9 11 1007.4 1006.2 0.0
27/03:00am 23.1 22.5 17.6 71 3.4 ENE 17 20 9 11 1007.7 1006.5 0.0
27/02:30am 23.3 23.8 17.5 70 3.6 ENE 11 17 6 9 1008.0 1006.8 0.0
27/02:00am 23.8 22.8 17.5 68 4.0 ENE 19 24 10 13 1008.3 1007.2 0.0
27/01:30am 24.1 23.9 17.6 67 4.1 ENE 15 20 8 11 1008.4 1007.3 0.0
27/01:00am 24.5 24.3 17.7 66 4.3 E 15 19 8 10 1008.5 1007.4 0.0
27/12:30am 24.7 23.8 17.7 65 4.4 E 19 24 10 13 1008.6 1007.5 0.0
27/12:00am 25.1 24.4 17.3 62 4.9 E 17 20 9 11 1008.2 1007.0 0.0
 
Date/Time
EDT
Temp
°C
App
Temp
°C
Dew
Point
Rel
Hum
%
Delta-T
°C
Wind Press
QNH
hPa
Press
MSL
hPa
Rain
since 9 am
mm
Dir
 
Spd
km/h
Gust
km/h
Spd
kts
Gust
kts
26/11:30pm 25.8 25.0 17.2 59 5.4 E 17 24 9 13 1008.7 1007.6 0.0
26/11:00pm 25.9 24.6 16.7 57 5.7 E 19 28 10 15 1008.5 1007.4 0.0
26/10:30pm 26.3 25.6 16.5 54 6.1 E 15 22 8 12 1008.7 1007.6 0.0
26/10:00pm 26.6 24.6 15.6 50 6.8 E 20 30 11 16 1008.4 1007.3 0.0
26/09:30pm 27.0 25.2 14.4 46 7.6 E 17 24 9 13 1008.1 1006.9 0.0
26/09:00pm 27.5 24.8 14.5 45 7.9 E 22 32 12 17 1007.9 1006.7 0.0
26/08:30pm 29.4 27.2 14.8 41 8.9 ESE 20 32 11 17 1007.4 1006.2 0.0
26/08:00pm 30.0 26.5 14.5 38 9.5 SE 26 32 14 17 1006.8 1005.6 0.0
26/07:30pm 31.4 28.0 13.6 33 10.8 SSE 24 33 13 18 1005.9 1004.7 0.0
26/07:00pm 32.9 25.3 3.8 16 15.3 SSW 33 43 18 23 1005.2 1004.1 0.0
26/06:30pm 33.7 26.4 5.3 17 15.3 SSW 33 46 18 25 1005.1 1004.0 0.0
26/06:00pm 34.8 27.3 3.4 14 16.5 SSW 32 39 17 21 - - 0.0
26/05:30pm 35.1 28.8 5.5 16 16.1 SSW 28 43 15 23 - - 0.0

Other Formats:

Comma delimited format used in spreadsheet applications
http://www.bom.gov.au/fwo/IDN60801/IDN60801.95718.axf

JavaScript Object Notation format (JSON) in row-major order
http://www.bom.gov.au/fwo/IDN60801/IDN60801.95718.json